Aérodrome :
LOGIN :

S'inscrire | Disclaimer

   EN    FR    IT 

 










Légende :    VFR   VFR Marginal   IFR   IFR Intensif   IFR Très Intensif
Visi : 
Plafond : 
>= 8 km
>= 3000ft
5 à 8 km
1000 à 3000 ft
1500m à 5 km
500 à 1000 ft
800 à 1500m
200 à 500 ft
< 800m
< 200 ft
Symboles :   Orages  Brouillard  Fortes neiges  Fortes précipitations  Vent > 20 kt
SIGMETs :   Divers  Orages  Givrage  Turbulence  Onde Orograph.  Cendres Volcan.







- Altitude de l'aérodrome : 622 ft
- Code IATA : BRS
- Voir les cartes d'approche


EGGD - Bristol Int.

DERNIER METAR :
  • 231420Z AUTO 29010KT 9999 NCD 12/07 Q1023

METARs EXPIRÉS :
  • 231350Z AUTO 32010KT 9999 FEW025 12/08 Q1023
  • 231320Z AUTO 30010KT 9999 FEW039 BKN045 12/09 Q1022
  • 231250Z AUTO 31009KT 9999 FEW022 SCT034 BKN042 11/09 Q1021
  • 231220Z AUTO 31010KT 280V340 9999 FEW019 11/08 Q1021
  • 231150Z AUTO 34010KT 9999 FEW020 11/08 Q1021

TAF TAF EGGD
Valide du 23 à 12h jusqu'au 24 à 12h UTC


231100Z 2312/2412 35012KT 9999 FEW025
BECMG 2403/2406 VRB03KT
ATIS : +44 1275 473 666
Pas de NOTAMs connus pour ce terrain.
1 SIGMET publié pour la FIR London (EGTT) :
 
Turbulence forte
EGTT SIGMET 03 VALID 231330/231630 EGRR
EGTT LONDON FIR SEV TURB FCST WI N5100 E00128 - N5040 E00128 - N5000 W00014 - N5031 W00005 - N5102 E00122 - N5130 E00200 - N5107 E00201 - N5100 E00128 SFC/FL060 MOV E 30KT WKN=



MET'MAP, la Météo Aéronautique d'un coup d'oeil ! - Copyright ORBIFLY Décembre 2007 - Disclaimer

ORBIFLY MET'MAP TEAM :

Programmation & Développement : Alexandra Zaïnal
Conception & Développement : Baudouin d'Aumeries
Co-Programmation & Développement : Marc-Olivier Méhu
Soutien technique & logistique : Manuel Goepfert

Contact : metmap@orbifly.com




SOURCES & CREDITS :

   NOAA